createdAt,value
2019-04-10T00:03:32.928Z,42.10
2019-04-10T00:13:29.647Z,42.20
2019-04-10T00:23:31.579Z,42.20
2019-04-10T00:33:34.441Z,42.40
2019-04-10T00:43:37.131Z,42.60
2019-04-10T00:53:39.222Z,42.70
2019-04-10T01:03:42.071Z,42.90
2019-04-10T01:13:43.764Z,43.00
2019-04-10T01:23:46.780Z,44.20
2019-04-10T01:33:49.195Z,43.30
2019-04-10T01:43:51.286Z,44.50
2019-04-10T01:53:54.375Z,43.60
2019-04-10T02:03:56.548Z,43.80
2019-04-10T02:13:58.570Z,43.80
2019-04-10T02:24:00.904Z,43.90
2019-04-10T02:34:04.611Z,44.80
2019-04-10T02:44:07.921Z,45.00
2019-04-10T02:54:11.378Z,45.20
2019-04-10T03:04:13.889Z,45.30
2019-04-10T03:14:16.866Z,45.40
2019-04-10T03:24:19.525Z,45.70
2019-04-10T03:34:22.679Z,45.80
2019-04-10T03:44:25.048Z,45.60
2019-04-10T03:54:27.969Z,45.90
2019-04-10T04:04:29.483Z,45.80
2019-04-10T04:14:32.512Z,46.60
2019-04-10T04:24:35.669Z,46.20
2019-04-10T04:34:38.683Z,47.20
2019-04-10T04:44:40.843Z,46.90
2019-04-10T04:54:43.495Z,47.20
2019-04-10T05:04:45.852Z,47.40
2019-04-10T05:14:48.157Z,47.80
2019-04-10T05:24:50.261Z,48.00
2019-04-10T05:34:52.433Z,48.10
2019-04-10T05:44:54.531Z,48.40
2019-04-10T05:54:56.506Z,48.70
2019-04-10T06:04:58.579Z,48.50
2019-04-10T06:15:00.647Z,48.80
2019-04-10T06:25:03.978Z,48.90
2019-04-10T06:35:08.089Z,48.80
2019-04-10T06:45:11.371Z,48.80
2019-04-10T06:55:13.292Z,48.80
2019-04-10T07:05:16.370Z,49.30
2019-04-10T07:15:21.209Z,48.30
2019-04-10T07:25:22.382Z,48.40
2019-04-10T07:35:25.654Z,48.00
2019-04-10T07:45:27.727Z,47.80
2019-04-10T07:55:30.837Z,47.60
2019-04-10T08:05:33.268Z,47.50
2019-04-10T08:15:35.767Z,46.90
2019-04-10T08:25:38.758Z,46.70
2019-04-10T08:35:40.429Z,46.40
2019-04-10T08:45:48.113Z,46.20
2019-04-10T08:55:46.293Z,45.70
2019-04-10T09:05:49.100Z,45.30
2019-04-10T09:15:51.682Z,44.00
2019-04-10T09:25:53.789Z,43.60
2019-04-10T09:35:55.763Z,43.20
2019-04-10T09:45:57.903Z,42.90
2019-04-10T09:56:00.784Z,42.20
2019-04-10T10:06:03.486Z,41.90
2019-04-10T10:16:06.394Z,39.80
2019-04-10T10:26:08.542Z,40.50
2019-04-10T10:36:11.582Z,39.80
2019-04-10T10:46:13.574Z,39.20
2019-04-10T10:56:15.538Z,38.60
2019-04-10T11:06:17.817Z,38.70
2019-04-10T11:16:20.659Z,37.40
2019-04-10T11:26:24.165Z,36.60
2019-04-10T11:36:28.239Z,36.10
2019-04-10T11:46:32.147Z,35.50
2019-04-10T11:56:35.678Z,34.50
2019-04-10T12:06:39.810Z,23.80
2019-04-10T12:16:41.693Z,17.80
2019-04-10T12:26:44.262Z,14.70
2019-04-10T12:36:46.847Z,12.00
2019-04-10T12:46:49.146Z,10.20
2019-04-10T12:56:51.316Z,7.40
2019-04-10T13:06:53.310Z,5.60
2019-04-10T13:16:56.196Z,5.30
2019-04-10T13:26:59.815Z,4.20
2019-04-10T13:37:02.115Z,3.60
2019-04-10T13:47:05.021Z,3.00
2019-04-10T13:57:07.770Z,2.90
2019-04-10T14:07:09.898Z,3.40
2019-04-10T14:17:12.951Z,3.50
2019-04-10T14:27:16.076Z,5.40
2019-04-10T14:37:19.065Z,11.90
2019-04-10T14:47:21.262Z,13.80
2019-04-10T14:57:23.495Z,12.20
2019-04-10T15:07:25.551Z,8.40
2019-04-10T15:17:28.673Z,7.10
2019-04-10T15:27:30.782Z,6.40
2019-04-10T15:37:33.328Z,9.70
2019-04-10T15:47:35.366Z,15.80
2019-04-10T15:57:49.153Z,17.80
2019-04-10T16:07:41.154Z,19.00
2019-04-10T16:17:44.031Z,20.10
2019-04-10T16:27:46.170Z,21.00
2019-04-10T16:37:49.419Z,21.80
2019-04-10T16:47:52.501Z,22.50
2019-04-10T16:57:55.596Z,23.10
2019-04-10T17:07:57.759Z,23.70
2019-04-10T17:18:00.957Z,24.20
2019-04-10T17:28:03.839Z,24.90
2019-04-10T17:38:06.612Z,25.20
2019-04-10T17:48:09.514Z,28.10
2019-04-10T17:58:11.681Z,25.80
2019-04-10T18:08:13.614Z,26.60
2019-04-10T18:18:15.830Z,27.10
2019-04-10T18:28:18.136Z,27.50
2019-04-10T18:38:21.590Z,27.90
2019-04-10T18:48:24.898Z,28.20
2019-04-10T18:58:27.570Z,28.40
2019-04-10T19:08:30.066Z,28.60
2019-04-10T19:18:33.931Z,29.10
2019-04-10T19:28:38.513Z,29.40
2019-04-10T19:38:39.763Z,29.60
2019-04-10T19:48:41.839Z,30.00
2019-04-10T19:58:46.000Z,30.90
2019-04-10T20:08:48.118Z,30.50
2019-04-10T20:18:52.821Z,30.90
2019-04-10T20:28:56.103Z,31.30
2019-04-10T20:38:58.990Z,31.50
2019-04-10T20:49:01.187Z,31.90
2019-04-10T20:59:03.802Z,32.10
2019-04-10T21:19:40.971Z,33.30
2019-04-10T21:29:44.100Z,33.50
2019-04-10T21:39:46.388Z,33.60
2019-04-10T21:49:48.493Z,34.60
2019-04-10T21:59:51.612Z,34.40
2019-04-10T22:09:53.634Z,34.30
2019-04-10T22:19:55.909Z,34.30
2019-04-10T22:29:58.445Z,34.30
2019-04-10T22:40:00.892Z,34.40
2019-04-10T22:50:03.399Z,35.10
2019-04-10T23:00:07.358Z,34.60
2019-04-10T23:10:12.880Z,34.80
2019-04-10T23:20:14.646Z,34.90
2019-04-10T23:30:17.026Z,35.00
2019-04-10T23:40:21.015Z,35.30
2019-04-10T23:50:23.959Z,35.50
